createdAt,value
2022-11-19T00:01:26.450Z,6.53
2022-11-19T00:06:29.801Z,6.63
2022-11-19T00:11:51.667Z,5.97
2022-11-19T00:16:55.022Z,6.83
2022-11-19T00:21:58.278Z,5.50
2022-11-19T00:27:02.920Z,7.00
2022-11-19T00:32:06.703Z,6.90
2022-11-19T00:37:09.973Z,7.43
2022-11-19T00:42:14.630Z,6.33
2022-11-19T00:47:18.357Z,6.27
2022-11-19T00:52:21.601Z,7.80
2022-11-19T00:57:26.268Z,6.87
2022-11-19T01:02:29.574Z,7.20
2022-11-19T01:07:32.855Z,6.57
2022-11-19T01:12:57.607Z,6.80
2022-11-19T01:18:01.026Z,7.77
2022-11-19T01:23:04.675Z,7.40
2022-11-19T01:28:09.606Z,7.77
2022-11-19T01:33:13.058Z,6.53
2022-11-19T01:38:16.443Z,7.17
2022-11-19T01:43:21.151Z,7.37
2022-11-19T01:48:28.313Z,7.63
2022-11-19T01:53:34.661Z,6.73
2022-11-19T01:58:42.500Z,6.77
2022-11-19T02:03:46.091Z,6.43
2022-11-19T02:08:51.780Z,6.63
2022-11-19T02:14:09.184Z,6.60
2022-11-19T02:19:22.560Z,7.40
2022-11-19T02:24:52.710Z,7.43
2022-11-19T02:30:12.142Z,6.87
2022-11-19T02:35:23.055Z,7.43
2022-11-19T02:40:30.695Z,7.17
2022-11-19T02:45:39.222Z,8.30
2022-11-19T02:50:46.331Z,7.50
2022-11-19T02:56:09.858Z,8.47
2022-11-19T03:01:32.431Z,8.97
2022-11-19T03:06:36.073Z,8.60
2022-11-19T03:11:39.600Z,7.77
2022-11-19T03:16:51.281Z,7.17
2022-11-19T03:21:57.902Z,8.03
2022-11-19T03:27:06.588Z,9.07
2022-11-19T03:32:15.660Z,8.37
2022-11-19T03:37:23.812Z,8.03
2022-11-19T03:42:28.090Z,8.20
2022-11-19T03:47:36.776Z,7.40
2022-11-19T03:52:39.962Z,7.53
2022-11-19T03:57:44.162Z,7.63
2022-11-19T04:02:48.806Z,7.13
2022-11-19T04:07:52.129Z,7.20
2022-11-19T04:12:55.385Z,8.67
2022-11-19T04:18:00.093Z,8.37
2022-11-19T04:23:03.394Z,8.13
2022-11-19T04:28:06.658Z,9.63
2022-11-19T04:33:11.341Z,6.07
2022-11-19T04:38:14.627Z,7.50
2022-11-19T04:43:17.961Z,6.93
2022-11-19T04:48:22.568Z,6.90
2022-11-19T04:53:26.228Z,7.13
2022-11-19T04:58:29.478Z,7.83
2022-11-19T05:03:34.121Z,7.73
2022-11-19T05:08:37.691Z,6.97
2022-11-19T05:13:41.111Z,7.60
2022-11-19T05:18:45.850Z,6.80
2022-11-19T05:23:49.059Z,6.90
2022-11-19T05:28:52.242Z,7.70
2022-11-19T05:33:57.132Z,7.20
2022-11-19T05:39:00.647Z,6.83
2022-11-19T05:44:04.184Z,6.70
2022-11-19T05:49:08.934Z,7.30
2022-11-19T05:54:12.815Z,6.60
2022-11-19T05:59:16.659Z,6.77
2022-11-19T06:04:21.298Z,6.53
2022-11-19T06:09:24.569Z,6.53
2022-11-19T06:14:28.768Z,5.63
2022-11-19T06:19:33.360Z,5.97
2022-11-19T06:24:38.747Z,7.03
2022-11-19T06:29:42.014Z,6.73
2022-11-19T06:34:46.878Z,6.10
2022-11-19T06:39:50.180Z,6.33
2022-11-19T06:44:53.439Z,6.20
2022-11-19T06:49:58.128Z,4.83
2022-11-19T06:55:01.462Z,5.80
2022-11-19T07:00:05.735Z,5.97
2022-11-19T07:05:10.992Z,6.27
2022-11-19T07:10:14.341Z,3.70
2022-11-19T07:15:17.643Z,3.77
2022-11-19T07:20:22.258Z,5.40
2022-11-19T07:25:25.765Z,6.70
2022-11-19T07:30:29.219Z,5.30
2022-11-19T07:35:33.949Z,5.20
2022-11-19T07:40:37.301Z,5.00
2022-11-19T07:45:40.502Z,4.97
2022-11-19T07:50:56.214Z,5.30
2022-11-19T07:56:01.469Z,4.73
2022-11-19T08:01:10.297Z,4.07
2022-11-19T08:06:15.832Z,3.90
2022-11-19T08:11:19.549Z,4.03
2022-11-19T08:16:40.374Z,3.63
2022-11-19T08:21:48.146Z,3.63
2022-11-19T08:26:52.140Z,4.37
2022-11-19T08:31:57.835Z,4.03
2022-11-19T08:37:02.574Z,4.07
2022-11-19T08:42:29.193Z,4.63
2022-11-19T08:47:32.485Z,3.67
2022-11-19T08:52:37.771Z,4.50
2022-11-19T08:57:41.137Z,4.37
2022-11-19T09:02:44.617Z,4.80
2022-11-19T09:07:49.619Z,4.53
2022-11-19T09:12:53.606Z,4.37
2022-11-19T09:17:57.218Z,4.60
2022-11-19T09:23:02.264Z,5.17
2022-11-19T09:28:05.905Z,5.00
2022-11-19T09:33:09.888Z,5.23
2022-11-19T09:38:14.683Z,4.43
2022-11-19T09:43:30.687Z,4.30
2022-11-19T09:48:36.869Z,4.87
2022-11-19T09:53:47.036Z,3.70
2022-11-19T09:58:50.502Z,4.30
2022-11-19T10:03:55.699Z,4.63
2022-11-19T10:09:20.368Z,4.53
2022-11-19T10:14:43.962Z,4.33
2022-11-19T10:20:02.455Z,4.50
2022-11-19T10:25:17.410Z,4.10
2022-11-19T10:30:22.243Z,3.93
2022-11-19T10:35:30.481Z,3.40
2022-11-19T10:40:42.089Z,4.20
2022-11-19T10:45:45.378Z,3.83
2022-11-19T10:50:48.972Z,4.13
2022-11-19T10:55:57.289Z,4.03
2022-11-19T11:01:03.462Z,4.20
2022-11-19T11:06:10.169Z,4.30
2022-11-19T11:11:20.029Z,4.03
2022-11-19T11:16:26.366Z,4.00
2022-11-19T11:21:34.100Z,3.17
2022-11-19T11:26:39.437Z,3.07
2022-11-19T11:31:44.613Z,2.90
2022-11-19T11:36:48.084Z,4.10
2022-11-19T11:42:05.357Z,3.23
2022-11-19T11:47:15.700Z,3.70
2022-11-19T11:52:22.623Z,3.40
2022-11-19T11:57:29.607Z,3.60
2022-11-19T12:02:35.275Z,3.40
2022-11-19T12:08:01.193Z,3.47
2022-11-19T12:13:55.955Z,3.63
2022-11-19T12:19:15.232Z,3.23
2022-11-19T12:24:38.331Z,3.70
2022-11-19T12:29:48.602Z,4.40
2022-11-19T12:35:05.454Z,3.87
2022-11-19T12:40:19.775Z,4.20
2022-11-19T12:45:36.987Z,4.53
2022-11-19T12:50:48.068Z,3.97
2022-11-19T12:56:04.721Z,3.93
2022-11-19T13:01:14.862Z,3.73
2022-11-19T13:06:23.760Z,3.87
2022-11-19T13:11:36.566Z,4.10
2022-11-19T13:16:44.277Z,4.77
2022-11-19T13:21:54.697Z,3.50
2022-11-19T13:27:02.817Z,4.60
2022-11-19T13:32:15.628Z,4.63
2022-11-19T13:37:32.562Z,4.33
2022-11-19T13:43:10.450Z,4.13
2022-11-19T13:48:26.785Z,4.27
2022-11-19T13:53:35.645Z,4.20
2022-11-19T13:58:44.965Z,4.20
2022-11-19T14:04:06.131Z,4.03
2022-11-19T14:09:24.898Z,3.13
2022-11-19T14:15:00.971Z,3.40
2022-11-19T14:20:50.369Z,3.63
2022-11-19T14:26:11.094Z,2.73
2022-11-19T14:31:15.192Z,3.80
2022-11-19T14:36:23.591Z,3.80
2022-11-19T14:41:31.361Z,2.90
2022-11-19T14:46:35.234Z,3.60
2022-11-19T14:51:42.310Z,4.27
2022-11-19T14:56:49.342Z,4.00
2022-11-19T15:02:00.141Z,4.20
2022-11-19T15:07:12.056Z,4.07
2022-11-19T15:12:15.405Z,3.97
2022-11-19T15:17:19.030Z,3.93
2022-11-19T15:22:36.571Z,4.20
2022-11-19T15:27:56.616Z,4.00
2022-11-19T15:33:27.091Z,3.87
2022-11-19T15:38:39.739Z,4.13
2022-11-19T15:43:47.418Z,3.43
2022-11-19T15:48:58.289Z,4.17
2022-11-19T15:54:04.829Z,4.00
2022-11-19T15:59:09.492Z,4.27
2022-11-19T16:04:17.949Z,4.13
2022-11-19T16:09:25.892Z,4.27
2022-11-19T16:14:48.779Z,4.33
2022-11-19T16:20:06.754Z,4.70
2022-11-19T16:25:14.819Z,4.57
2022-11-19T16:30:20.462Z,4.40
2022-11-19T16:35:27.762Z,4.00
2022-11-19T16:40:53.627Z,3.70
2022-11-19T16:45:58.394Z,4.07
2022-11-19T16:51:38.259Z,4.00
2022-11-19T16:56:45.766Z,4.13
2022-11-19T17:01:58.591Z,4.00
2022-11-19T17:07:03.864Z,4.60
2022-11-19T17:12:23.784Z,4.57
2022-11-19T17:17:40.705Z,5.20
2022-11-19T17:22:45.156Z,4.33
2022-11-19T17:27:55.043Z,4.53
2022-11-19T17:33:01.348Z,4.90
2022-11-19T17:38:12.299Z,5.27
2022-11-19T17:43:37.017Z,4.17
2022-11-19T17:48:42.678Z,4.60
2022-11-19T17:53:46.875Z,4.17
2022-11-19T17:58:51.998Z,5.13
2022-11-19T18:03:57.156Z,4.20
2022-11-19T18:09:01.326Z,4.67
2022-11-19T18:14:09.955Z,5.17
2022-11-19T18:19:16.619Z,4.13
2022-11-19T18:24:20.913Z,3.67
2022-11-19T18:29:26.060Z,4.53
2022-11-19T18:34:31.519Z,4.30
2022-11-19T18:39:36.019Z,4.83
2022-11-19T18:44:43.988Z,4.70
2022-11-19T18:49:48.710Z,4.83
2022-11-19T18:54:53.934Z,4.67
2022-11-19T18:59:59.471Z,4.63
2022-11-19T19:05:06.243Z,5.13
2022-11-19T19:10:13.336Z,4.97
2022-11-19T19:15:22.141Z,5.17
2022-11-19T19:20:26.941Z,4.90
2022-11-19T19:25:31.600Z,5.60
2022-11-19T19:30:37.425Z,4.97
2022-11-19T19:35:42.144Z,4.73
2022-11-19T19:40:49.047Z,5.17
2022-11-19T19:45:56.106Z,4.80
2022-11-19T19:51:01.602Z,5.30
2022-11-19T19:56:07.842Z,5.37
2022-11-19T20:01:16.010Z,4.57
2022-11-19T20:06:23.028Z,4.80
2022-11-19T20:11:32.788Z,4.10
2022-11-19T20:16:42.429Z,5.07
2022-11-19T20:21:47.593Z,4.30
2022-11-19T20:26:52.397Z,4.90
2022-11-19T20:31:59.519Z,5.63
2022-11-19T20:37:04.766Z,4.40
2022-11-19T20:42:27.271Z,4.23
2022-11-19T20:47:33.481Z,5.10
2022-11-19T20:52:38.105Z,5.57
2022-11-19T20:57:42.256Z,5.80
2022-11-19T21:02:48.005Z,5.30
2022-11-19T21:07:52.472Z,4.87
2022-11-19T21:13:05.868Z,5.13
2022-11-19T21:18:10.698Z,5.70
2022-11-19T21:23:14.860Z,5.20
2022-11-19T21:28:18.546Z,5.03
2022-11-19T21:33:26.680Z,5.60
2022-11-19T21:38:31.305Z,6.03
2022-11-19T21:43:35.473Z,4.63
2022-11-19T21:48:41.189Z,5.77
2022-11-19T21:53:45.033Z,5.63
2022-11-19T21:58:48.439Z,5.40
2022-11-19T22:03:53.184Z,4.83
2022-11-19T22:08:56.505Z,5.97
2022-11-19T22:14:01.835Z,5.40
2022-11-19T22:19:07.373Z,5.00
2022-11-19T22:24:11.182Z,5.87
2022-11-19T22:29:14.518Z,4.70
2022-11-19T22:34:19.246Z,5.80
2022-11-19T22:39:22.735Z,5.77
2022-11-19T22:44:26.233Z,4.90
2022-11-19T22:49:30.963Z,5.57
2022-11-19T22:54:37.376Z,6.10
2022-11-19T22:59:44.584Z,5.83
2022-11-19T23:04:49.509Z,5.67
2022-11-19T23:09:53.177Z,5.43
2022-11-19T23:14:56.761Z,5.70
2022-11-19T23:20:04.626Z,5.33
2022-11-19T23:25:08.900Z,5.47
2022-11-19T23:30:12.950Z,5.43
2022-11-19T23:35:17.902Z,5.50
2022-11-19T23:40:21.237Z,5.97
2022-11-19T23:45:24.594Z,5.60
2022-11-19T23:50:29.521Z,5.77
2022-11-19T23:55:32.805Z,5.60
